Time;durP1;ratioP1;P1;durP2;ratioP2;P2;SDS_P1;SDS_P2;PMS_P1;PMS_P2;Temp;Humidity;BMP_temperature;BMP_pressure;BME280_temperature;BME280_humidity;BME280_pressure;Samples;Min_cycle;Max_cycle;Signal;HPM_P1;HPM_P2
2022/04/30 00:02:07;;;;;;;8.55;4.43;;;15.40;53.40;;;;;;4934580;29;20027;-66
2022/04/30 00:04:44;;;;;;;8.70;4.28;;;15.40;53.40;;;;;;4935624;29;20107;-67
2022/04/30 00:07:12;;;;;;;6.25;4.13;;;15.40;53.40;;;;;;4934456;29;20518;-68
2022/04/30 00:09:38;;;;;;;6.57;4.20;;;15.30;53.40;;;;;;4923412;29;20054;-67
2022/04/30 00:12:04;;;;;;;6.82;3.58;;;15.30;53.30;;;;;;4929439;29;20115;-67
2022/04/30 00:14:30;;;;;;;5.68;3.97;;;15.20;53.20;;;;;;4934349;29;20120;-67
2022/04/30 00:16:57;;;;;;;8.85;3.83;;;15.20;53.30;;;;;;4934612;29;20036;-67
2022/04/30 00:19:23;;;;;;;8.27;4.30;;;15.20;53.60;;;;;;4929565;29;20543;-67
2022/04/30 00:21:50;;;;;;;9.55;4.72;;;15.20;53.70;;;;;;4930109;29;20062;-67
2022/04/30 00:24:15;;;;;;;6.78;4.30;;;15.10;53.80;;;;;;4916877;29;20110;-67
2022/04/30 00:26:41;;;;;;;7.93;4.03;;;15.10;53.90;;;;;;4933892;29;20036;-67
2022/04/30 00:29:07;;;;;;;7.65;4.72;;;15.00;54.10;;;;;;4935164;29;20035;-67
2022/04/30 00:31:34;;;;;;;7.57;4.07;;;15.00;54.10;;;;;;4934179;29;20554;-67
2022/04/30 00:34:01;;;;;;;9.02;3.92;;;15.00;54.20;;;;;;4934911;29;20036;-67
2022/04/30 00:36:26;;;;;;;8.02;3.78;;;14.90;54.30;;;;;;4928951;29;20023;-67
2022/04/30 00:38:52;;;;;;;6.90;3.70;;;14.90;54.50;;;;;;4922181;29;20400;-67
2022/04/30 00:41:18;;;;;;;10.13;3.97;;;14.90;54.70;;;;;;4932775;29;20542;-67
2022/04/30 00:43:50;;;;;;;7.65;3.85;;;14.90;54.90;;;;;;4932871;29;20387;-67
2022/04/30 00:46:17;;;;;;;5.80;3.85;;;14.80;55.00;;;;;;4934235;29;20040;-67
2022/04/30 00:48:44;;;;;;;9.10;4.15;;;14.80;55.10;;;;;;4934728;29;20028;-67
2022/04/30 00:51:12;;;;;;;7.20;4.22;;;14.80;55.10;;;;;;4933725;29;20115;-67
2022/04/30 00:53:39;;;;;;;6.43;3.53;;;14.70;55.30;;;;;;4934360;29;20028;-67
2022/04/30 00:56:11;;;;;;;7.07;4.93;;;14.70;55.40;;;;;;4932983;29;20027;-67
2022/04/30 00:58:39;;;;;;;9.43;5.28;;;14.60;55.40;;;;;;4934022;29;20534;-67
2022/04/30 01:01:05;;;;;;;7.78;4.88;;;14.70;55.50;;;;;;4925827;29;20027;-66
2022/04/30 01:03:31;;;;;;;10.80;4.95;;;14.60;55.40;;;;;;4919566;29;20455;-67
2022/04/30 01:05:58;;;;;;;8.13;5.28;;;14.60;55.50;;;;;;4933408;29;20492;-66
2022/04/30 01:08:27;;;;;;;8.07;4.50;;;14.60;55.40;;;;;;4934375;29;22030;-67
2022/04/30 01:10:54;;;;;;;8.45;4.65;;;14.60;55.40;;;;;;4934622;29;20051;-67
2022/04/30 01:13:20;;;;;;;9.27;4.20;;;14.60;55.40;;;;;;4919467;29;20107;-66
2022/04/30 01:15:46;;;;;;;8.07;3.80;;;14.50;55.40;;;;;;4924303;29;20036;-66
2022/04/30 01:18:12;;;;;;;11.32;5.43;;;14.50;55.50;;;;;;4918568;29;20028;-66
2022/04/30 01:20:42;;;;;;;6.47;4.15;;;14.50;55.60;;;;;;4933143;29;20114;-66
2022/04/30 01:23:09;;;;;;;8.35;4.10;;;14.50;55.70;;;;;;4933769;29;20052;-66
2022/04/30 01:25:35;;;;;;;6.22;4.28;;;14.40;55.60;;;;;;4933138;29;20566;-66
2022/04/30 01:28:01;;;;;;;6.32;3.90;;;14.40;55.60;;;;;;4934224;29;20048;-66
2022/04/30 01:30:28;;;;;;;7.07;4.03;;;14.40;55.90;;;;;;4915705;29;20040;-66
2022/04/30 01:38:22;;;;;;;8.98;4.43;;;14.40;55.90;;;;;;4934293;29;20639;-66
2022/04/30 01:40:48;;;;;;;6.90;3.88;;;14.40;56.10;;;;;;4933250;29;20052;-66
2022/04/30 01:43:15;;;;;;;8.65;4.07;;;14.40;56.00;;;;;;4934077;29;20036;-66
2022/04/30 01:45:43;;;;;;;8.07;4.20;;;14.30;55.80;;;;;;4932899;29;20073;-66
2022/04/30 01:48:12;;;;;;;7.97;3.92;;;14.30;55.80;;;;;;4933906;29;20030;-66
2022/04/30 01:50:38;;;;;;;11.30;4.30;;;14.30;55.90;;;;;;4926937;29;20094;-67
2022/04/30 01:53:03;;;;;;;8.50;4.57;;;14.30;56.00;;;;;;4932996;29;20483;-67
2022/04/30 01:55:29;;;;;;;7.97;3.88;;;14.20;56.20;;;;;;4932138;29;20035;-66
2022/04/30 01:57:55;;;;;;;8.55;4.03;;;14.20;56.00;;;;;;4934065;29;20388;-66
2022/04/30 02:00:20;;;;;;;8.20;3.72;;;14.20;56.20;;;;;;4926863;29;20032;-67
2022/04/30 02:02:48;;;;;;;5.85;3.88;;;14.20;56.20;;;;;;4933862;29;20035;-66
2022/04/30 02:05:15;;;;;;;7.50;3.92;;;14.20;56.20;;;;;;4933017;29;20039;-67
2022/04/30 02:07:49;;;;;;;6.45;3.85;;;14.10;56.30;;;;;;4933708;29;20027;-66
2022/04/30 02:10:18;;;;;;;10.02;3.55;;;14.10;56.30;;;;;;4932934;29;20035;-66
2022/04/30 02:12:44;;;;;;;8.32;3.80;;;14.20;56.50;;;;;;4935582;29;20028;-66
2022/04/30 02:15:10;;;;;;;7.13;3.78;;;14.10;56.50;;;;;;4936363;29;20063;-66
2022/04/30 02:17:38;;;;;;;6.38;3.40;;;14.10;56.50;;;;;;4937831;29;20036;-67
2022/04/30 02:20:22;;;;;;;7.03;4.43;;;14.00;56.40;;;;;;4938201;29;20091;-67
2022/04/30 02:22:49;;;;;;;6.60;4.32;;;14.00;56.80;;;;;;4936745;29;20060;-67
2022/04/30 02:25:16;;;;;;;8.20;4.38;;;14.00;57.10;;;;;;4936391;29;20041;-67
2022/04/30 02:27:52;;;;;;;8.13;4.20;;;13.90;57.20;;;;;;4936907;29;20134;-67
2022/04/30 02:30:20;;;;;;;6.68;3.90;;;13.90;57.10;;;;;;4934751;29;20111;-67
2022/04/30 02:32:50;;;;;;;7.93;3.83;;;13.90;57.10;;;;;;4936082;29;20035;-67
2022/04/30 02:35:19;;;;;;;7.95;4.03;;;13.90;57.20;;;;;;4936296;29;20028;-67
2022/04/30 02:37:45;;;;;;;9.75;4.40;;;13.90;57.20;;;;;;4936952;29;20023;-67
2022/04/30 02:40:18;;;;;;;6.72;3.90;;;13.90;57.30;;;;;;4935645;29;20040;-66
2022/04/30 02:42:47;;;;;;;6.00;3.85;;;13.90;57.20;;;;;;4936746;29;20051;-67
2022/04/30 02:45:14;;;;;;;6.30;3.42;;;13.80;57.10;;;;;;4936310;29;20131;-67
2022/04/30 02:47:42;;;;;;;6.45;3.28;;;13.80;57.20;;;;;;4937011;29;20076;-67
2022/04/30 02:50:09;;;;;;;8.82;4.80;;;13.80;57.30;;;;;;4928491;29;20099;-66
2022/04/30 02:52:35;;;;;;;7.22;3.60;;;13.80;57.30;;;;;;4936933;29;20395;-67
2022/04/30 02:55:01;;;;;;;7.13;3.92;;;13.80;57.40;;;;;;4935695;29;20035;-67
2022/04/30 03:00:39;;;;;;;10.18;4.00;;;13.70;57.40;;;;;;4927755;29;20036;-67
2022/04/30 03:03:05;;;;;;;8.68;4.00;;;13.70;57.40;;;;;;4930008;29;20028;-67
2022/04/30 03:05:31;;;;;;;8.75;4.18;;;13.70;57.60;;;;;;4926365;29;20522;-67
2022/04/30 03:07:57;;;;;;;8.73;4.35;;;13.70;57.50;;;;;;4925284;29;20070;-66
2022/04/30 03:10:23;;;;;;;7.63;3.97;;;13.70;57.70;;;;;;4927645;29;20419;-67
2022/04/30 03:12:49;;;;;;;7.22;4.30;;;13.60;57.70;;;;;;4909336;29;20016;-67
2022/04/30 03:15:16;;;;;;;7.70;3.53;;;13.60;57.60;;;;;;4933230;29;20035;-66
2022/04/30 03:23:10;;;;;;;6.70;3.42;;;13.50;57.70;;;;;;4935689;29;20339;-66
2022/04/30 03:25:35;;;;;;;7.45;3.47;;;13.50;57.80;;;;;;4924809;29;20051;-66
2022/04/30 03:28:01;;;;;;;8.35;3.85;;;13.40;57.90;;;;;;4926068;29;20459;-66
2022/04/30 03:30:27;;;;;;;7.50;3.95;;;13.40;58.00;;;;;;4933974;29;20115;-66
2022/04/30 03:32:52;;;;;;;6.50;3.60;;;13.40;58.10;;;;;;4935875;29;20040;-66
2022/04/30 03:35:18;;;;;;;8.48;3.38;;;13.40;58.10;;;;;;4927434;29;20107;-66
2022/04/30 03:37:43;;;;;;;5.18;2.95;;;13.40;58.20;;;;;;4928743;29;20034;-66
2022/04/30 03:40:09;;;;;;;5.95;3.15;;;13.30;58.30;;;;;;4935437;29;20091;-67
2022/04/30 03:42:35;;;;;;;6.40;3.38;;;13.30;58.50;;;;;;4935216;29;20035;-67
2022/04/30 03:45:04;;;;;;;4.93;3.03;;;13.30;58.70;;;;;;4934783;29;20047;-66
2022/04/30 03:47:30;;;;;;;4.40;2.83;;;13.30;58.80;;;;;;4935767;29;20053;-66
2022/04/30 03:49:55;;;;;;;7.68;3.00;;;13.20;58.70;;;;;;4934954;29;20602;-66
2022/04/30 03:52:22;;;;;;;6.13;3.22;;;13.20;58.80;;;;;;4933454;29;20032;-67
2022/04/30 03:54:47;;;;;;;8.52;3.00;;;13.20;59.00;;;;;;4926413;29;20107;-66
2022/04/30 03:57:13;;;;;;;4.82;2.90;;;13.20;59.10;;;;;;4935274;29;20028;-66
2022/04/30 03:59:38;;;;;;;6.95;3.65;;;13.20;59.10;;;;;;4934073;29;20475;-66
2022/04/30 04:02:04;;;;;;;9.43;3.20;;;13.20;59.30;;;;;;4934931;29;20028;-67
2022/04/30 04:04:29;;;;;;;4.47;2.90;;;13.20;59.50;;;;;;4934782;29;20479;-67
2022/04/30 04:06:56;;;;;;;5.57;2.67;;;13.20;59.50;;;;;;4935335;29;20047;-66
2022/04/30 04:09:22;;;;;;;6.85;3.10;;;13.20;59.50;;;;;;4934138;29;20059;-66
2022/04/30 04:11:47;;;;;;;6.07;2.88;;;13.20;59.50;;;;;;4935044;29;20043;-66
2022/04/30 04:19:41;;;;;;;5.68;2.88;;;13.10;59.40;;;;;;4934312;29;20031;-67
2022/04/30 04:22:07;;;;;;;6.70;3.70;;;13.10;59.50;;;;;;4920148;29;20498;-67
2022/04/30 04:27:17;;;;;;;9.15;3.85;;;13.10;59.80;;;;;;4935201;29;20042;-66
2022/04/30 04:29:44;;;;;;;5.68;3.10;;;13.10;59.80;;;;;;4931117;29;20040;-69
2022/04/30 04:32:09;;;;;;;6.32;3.15;;;13.10;59.60;;;;;;4934783;29;20139;-65
2022/04/30 04:34:35;;;;;;;10.85;3.15;;;13.10;59.80;;;;;;4934030;29;20111;-66
2022/04/30 04:37:00;;;;;;;4.80;3.30;;;13.10;59.80;;;;;;4934632;29;20037;-66
2022/04/30 04:39:26;;;;;;;5.65;3.33;;;13.10;59.90;;;;;;4933710;29;20515;-65
2022/04/30 04:41:51;;;;;;;7.03;4.45;;;13.10;60.00;;;;;;4929335;29;20042;-66
2022/04/30 04:44:17;;;;;;;7.40;4.38;;;13.10;59.90;;;;;;4915777;29;20115;-65
2022/04/30 04:46:43;;;;;;;5.35;3.55;;;13.10;60.10;;;;;;4934164;29;20043;-68
2022/04/30 04:49:10;;;;;;;6.25;3.90;;;13.10;60.00;;;;;;4934854;29;20027;-72
2022/04/30 04:51:35;;;;;;;7.10;3.70;;;13.10;60.10;;;;;;4932439;29;20090;-68
2022/04/30 04:54:02;;;;;;;5.72;3.63;;;13.10;60.10;;;;;;4934732;29;20106;-66
2022/04/30 04:56:29;;;;;;;8.80;3.95;;;13.10;60.00;;;;;;4918166;29;20035;-64
2022/04/30 04:58:55;;;;;;;5.82;3.03;;;13.10;60.00;;;;;;4933727;29;20526;-64
2022/04/30 05:01:20;;;;;;;5.82;3.28;;;13.10;60.10;;;;;;4932975;29;20035;-66
2022/04/30 05:03:46;;;;;;;6.45;3.50;;;13.10;60.10;;;;;;4917747;29;22021;-66
2022/04/30 05:06:12;;;;;;;4.40;3.30;;;13.10;60.10;;;;;;4932100;29;20090;-65
2022/04/30 05:08:37;;;;;;;6.38;3.38;;;13.10;60.30;;;;;;4934485;29;20058;-65
2022/04/30 05:11:03;;;;;;;5.82;3.10;;;13.10;60.40;;;;;;4931916;29;20027;-65
2022/04/30 05:13:28;;;;;;;6.28;3.05;;;13.20;60.50;;;;;;4933715;29;20042;-64
2022/04/30 05:15:54;;;;;;;8.82;3.15;;;13.20;60.50;;;;;;4933436;29;20066;-65
2022/04/30 05:18:20;;;;;;;5.07;2.88;;;13.20;60.70;;;;;;4925912;29;20462;-65
2022/04/30 05:20:46;;;;;;;4.53;3.30;;;13.20;60.80;;;;;;4932839;29;20043;-65
2022/04/30 05:23:11;;;;;;;6.15;3.22;;;13.30;60.90;;;;;;4934315;29;20051;-65
2022/04/30 05:25:40;;;;;;;6.70;3.42;;;13.40;61.00;;;;;;4933145;29;20040;-65
2022/04/30 05:28:09;;;;;;;7.07;3.20;;;13.40;61.10;;;;;;4934309;29;20131;-65
2022/04/30 05:30:35;;;;;;;7.22;3.08;;;13.40;61.10;;;;;;4929557;29;20039;-65
2022/04/30 05:33:00;;;;;;;6.35;3.58;;;13.50;61.00;;;;;;4934270;29;20028;-65
2022/04/30 05:35:26;;;;;;;6.15;3.15;;;13.50;60.50;;;;;;4933314;29;20111;-65
2022/04/30 05:37:51;;;;;;;6.28;3.28;;;13.50;60.50;;;;;;4934040;29;20039;-64
2022/04/30 05:40:18;;;;;;;6.15;2.97;;;13.60;60.50;;;;;;4933692;29;20023;-65
2022/04/30 05:42:44;;;;;;;6.35;3.00;;;13.60;60.80;;;;;;4921058;29;20047;-65
2022/04/30 05:45:09;;;;;;;9.95;3.58;;;13.70;60.90;;;;;;4917360;29;20484;-65
2022/04/30 05:47:35;;;;;;;9.70;3.10;;;13.70;60.60;;;;;;4916826;29;20064;-64
2022/04/30 05:50:00;;;;;;;6.85;3.50;;;13.80;60.70;;;;;;4925019;29;20760;-65
2022/04/30 05:52:26;;;;;;;7.68;3.28;;;13.90;60.60;;;;;;4937879;29;20047;-65
2022/04/30 05:54:51;;;;;;;6.55;3.15;;;13.90;60.50;;;;;;4933385;29;20115;-65
2022/04/30 05:57:17;;;;;;;4.53;2.92;;;14.00;60.40;;;;;;4923555;29;20479;-65
2022/04/30 05:59:42;;;;;;;6.85;3.20;;;14.00;60.10;;;;;;4936845;29;20024;-64
2022/04/30 06:02:08;;;;;;;6.25;3.53;;;14.10;60.10;;;;;;4937699;29;20040;-64
2022/04/30 06:04:33;;;;;;;10.32;3.20;;;14.20;60.20;;;;;;4937190;29;20055;-65
2022/04/30 06:06:59;;;;;;;6.38;3.03;;;14.20;60.10;;;;;;4937703;29;20452;-65
2022/04/30 06:09:25;;;;;;;5.22;3.25;;;14.30;60.20;;;;;;4936531;29;20114;-65
2022/04/30 06:11:50;;;;;;;11.52;4.68;;;14.30;60.20;;;;;;4937052;29;20356;-65
2022/04/30 06:14:16;;;;;;;6.70;3.65;;;14.50;60.40;;;;;;4935704;29;20028;-65
2022/04/30 06:16:42;;;;;;;4.85;3.05;;;14.50;60.00;;;;;;4935174;28;20111;-65
2022/04/30 06:19:08;;;;;;;8.57;4.00;;;14.60;60.20;;;;;;4935996;29;20032;-66
2022/04/30 06:21:33;;;;;;;7.82;3.30;;;14.70;59.60;;;;;;4932639;29;20083;-66
2022/04/30 06:23:59;;;;;;;5.60;2.95;;;14.80;59.70;;;;;;4920619;29;20134;-66
2022/04/30 06:26:24;;;;;;;4.75;3.03;;;14.80;59.60;;;;;;4927332;29;20115;-65
2022/04/30 06:28:49;;;;;;;5.80;2.97;;;14.90;59.30;;;;;;4920079;29;20027;-66
2022/04/30 06:31:15;;;;;;;5.95;3.55;;;14.90;59.00;;;;;;4920007;29;20115;-66
2022/04/30 06:33:40;;;;;;;7.63;3.60;;;15.00;59.00;;;;;;4923669;29;20035;-66
2022/04/30 06:36:07;;;;;;;8.60;3.00;;;15.00;59.10;;;;;;4930446;29;20088;-66
2022/04/30 06:38:33;;;;;;;6.97;4.15;;;15.10;59.00;;;;;;4936672;29;20023;-66
2022/04/30 06:40:59;;;;;;;7.45;3.60;;;15.20;58.80;;;;;;4918065;29;20123;-67
2022/04/30 06:43:24;;;;;;;4.57;3.22;;;15.20;59.00;;;;;;4933796;29;20076;-66
2022/04/30 06:45:49;;;;;;;6.60;4.10;;;15.30;59.00;;;;;;4935357;29;20036;-66
2022/04/30 06:48:15;;;;;;;6.07;3.20;;;15.30;58.70;;;;;;4935913;29;20035;-67
2022/04/30 06:50:40;;;;;;;5.53;3.00;;;15.40;58.90;;;;;;4922751;29;20029;-66
2022/04/30 06:58:44;;;;;;;8.10;3.20;;;15.60;58.60;;;;;;4934270;29;20043;-70
2022/04/30 07:04:01;;;;;;;4.85;2.88;;;15.70;58.60;;;;;;4934968;29;19978;-67
2022/04/30 07:06:29;;;;;;;7.30;3.58;;;15.70;58.20;;;;;;4934145;29;20050;-68
2022/04/30 07:08:54;;;;;;;6.55;3.75;;;15.70;57.80;;;;;;4934868;29;20020;-68
2022/04/30 07:11:19;;;;;;;7.28;3.70;;;15.70;57.60;;;;;;4932963;29;20024;-70
2022/04/30 07:13:45;;;;;;;6.72;3.55;;;15.70;57.10;;;;;;4916238;29;20024;-68
2022/04/30 07:16:10;;;;;;;7.55;4.18;;;15.80;56.90;;;;;;4935160;29;20443;-68
2022/04/30 07:18:36;;;;;;;8.82;3.78;;;15.80;56.80;;;;;;4935802;29;20028;-69
2022/04/30 07:21:01;;;;;;;9.05;3.95;;;15.80;56.60;;;;;;4932445;29;20028;-68
2022/04/30 07:23:27;;;;;;;6.15;4.05;;;15.80;57.00;;;;;;4918454;29;20099;-67
2022/04/30 07:25:52;;;;;;;6.53;4.43;;;15.90;57.00;;;;;;4920371;29;20048;-66
2022/04/30 07:28:18;;;;;;;9.27;5.35;;;15.90;57.00;;;;;;4932571;29;20023;-68
2022/04/30 07:30:43;;;;;;;11.90;4.95;;;16.00;56.90;;;;;;4922988;29;20032;-68
2022/04/30 07:33:09;;;;;;;9.13;4.50;;;16.00;57.00;;;;;;4919032;29;20786;-67
2022/04/30 07:35:34;;;;;;;7.95;4.90;;;16.00;57.40;;;;;;4935460;29;20032;-67
2022/04/30 07:38:00;;;;;;;7.63;4.82;;;16.10;57.60;;;;;;4922546;29;20038;-67
2022/04/30 07:40:25;;;;;;;8.02;4.78;;;16.20;58.00;;;;;;4923423;29;20032;-66
2022/04/30 07:42:51;;;;;;;12.05;5.20;;;16.30;57.70;;;;;;4926903;29;20369;-67
2022/04/30 07:45:16;;;;;;;9.98;4.82;;;16.30;57.70;;;;;;4925500;29;20032;-67
2022/04/30 07:47:42;;;;;;;8.38;4.97;;;16.30;57.50;;;;;;4910592;29;20420;-66
2022/04/30 07:50:08;;;;;;;8.02;4.80;;;16.30;57.60;;;;;;4906377;29;20062;-67
2022/04/30 07:52:33;;;;;;;8.90;5.60;;;16.50;57.40;;;;;;4931647;29;20039;-67
2022/04/30 07:55:02;;;;;;;8.52;4.75;;;16.50;57.10;;;;;;4926186;29;20046;-67
2022/04/30 07:57:28;;;;;;;7.53;5.28;;;16.50;57.20;;;;;;4915182;29;20453;-66
2022/04/30 07:59:53;;;;;;;8.45;5.50;;;16.60;57.10;;;;;;4922773;29;20593;-67
2022/04/30 08:02:19;;;;;;;10.43;6.03;;;16.60;57.20;;;;;;4928514;29;20024;-66
2022/04/30 08:04:45;;;;;;;10.25;4.88;;;16.70;57.10;;;;;;4903418;29;20031;-66
2022/04/30 08:07:11;;;;;;;12.13;5.18;;;16.80;56.80;;;;;;4933797;29;20459;-66
2022/04/30 08:09:36;;;;;;;8.13;5.00;;;16.80;56.60;;;;;;4931800;29;20027;-67
2022/04/30 08:12:02;;;;;;;10.65;6.10;;;16.80;56.90;;;;;;4929851;29;20044;-66
2022/04/30 08:14:28;;;;;;;9.57;5.32;;;16.90;57.10;;;;;;4917541;29;20028;-67
2022/04/30 08:16:54;;;;;;;9.82;5.40;;;17.00;56.90;;;;;;4931573;29;20035;-67
2022/04/30 08:19:20;;;;;;;7.90;4.50;;;17.00;57.30;;;;;;4940394;29;21523;-67
2022/04/30 08:21:48;;;;;;;7.22;4.80;;;17.00;56.80;;;;;;4927786;29;20086;-66
2022/04/30 08:24:14;;;;;;;7.78;5.07;;;17.00;56.60;;;;;;4919752;29;20074;-68
2022/04/30 08:26:40;;;;;;;6.43;4.38;;;17.00;56.40;;;;;;4929976;29;22095;-66
2022/04/30 08:29:06;;;;;;;8.15;3.78;;;17.00;56.60;;;;;;4923084;29;20439;-66
2022/04/30 08:31:32;;;;;;;7.32;4.60;;;17.10;56.40;;;;;;4933082;29;20028;-67
2022/04/30 08:33:59;;;;;;;9.10;4.65;;;17.20;56.20;;;;;;4933923;29;20474;-66
2022/04/30 08:36:24;;;;;;;6.68;4.30;;;17.20;55.90;;;;;;4931377;29;20515;-67
2022/04/30 08:38:49;;;;;;;7.15;4.53;;;17.30;55.80;;;;;;4933899;29;20627;-66
2022/04/30 08:41:16;;;;;;;9.30;4.45;;;17.40;55.70;;;;;;4929297;29;20019;-67
2022/04/30 08:43:45;;;;;;;7.68;4.68;;;17.40;55.10;;;;;;4929962;29;20036;-69
2022/04/30 08:46:11;;;;;;;9.00;5.03;;;17.40;54.90;;;;;;4933966;29;20504;-67
2022/04/30 08:48:37;;;;;;;6.63;4.53;;;17.50;54.80;;;;;;4921016;29;20036;-67
2022/04/30 08:51:03;;;;;;;8.55;4.95;;;17.40;54.90;;;;;;4929169;29;20036;-67
2022/04/30 08:53:28;;;;;;;8.85;4.22;;;17.40;54.80;;;;;;4934488;29;20024;-67
2022/04/30 08:55:53;;;;;;;11.85;4.57;;;17.50;55.10;;;;;;4932006;29;20115;-67
2022/04/30 08:58:19;;;;;;;6.65;4.20;;;17.50;55.00;;;;;;4928200;29;20056;-67
2022/04/30 09:00:47;;;;;;;6.15;3.72;;;17.60;54.90;;;;;;4923864;29;20040;-67
2022/04/30 09:03:18;;;;;;;7.38;4.18;;;17.70;55.00;;;;;;4930078;29;20483;-67
2022/04/30 09:05:45;;;;;;;8.25;3.70;;;17.80;55.00;;;;;;4914609;29;20046;-67
2022/04/30 09:08:10;;;;;;;11.30;4.20;;;17.90;55.00;;;;;;4924700;29;20040;-67
2022/04/30 09:10:40;;;;;;;5.00;3.50;;;18.00;54.90;;;;;;4932617;29;20024;-67
2022/04/30 09:13:12;;;;;;;6.60;3.92;;;18.00;54.80;;;;;;4937812;29;20036;-68
2022/04/30 09:15:44;;;;;;;6.00;4.05;;;18.00;54.90;;;;;;4932703;29;20083;-68
2022/04/30 09:18:11;;;;;;;7.13;3.83;;;18.10;54.60;;;;;;4933568;29;20032;-68
2022/04/30 09:20:47;;;;;;;7.65;3.67;;;18.00;54.40;;;;;;4924753;29;20115;-67
2022/04/30 09:23:32;;;;;;;7.05;3.90;;;18.00;54.30;;;;;;4921503;29;20052;-68
2022/04/30 09:26:02;;;;;;;5.53;3.42;;;18.00;54.70;;;;;;4919899;29;20442;-68
2022/04/30 09:28:33;;;;;;;6.30;3.97;;;18.00;54.50;;;;;;4924889;29;20035;-67
2022/04/30 09:31:16;;;;;;;10.00;4.88;;;18.00;54.20;;;;;;4933219;29;20035;-67
2022/04/30 09:33:48;;;;;;;8.67;4.20;;;18.00;54.50;;;;;;4918173;29;20098;-67
2022/04/30 09:38:58;;;;;;;4.97;3.22;;;18.10;54.30;;;;;;4931354;29;20027;-67
2022/04/30 09:41:26;;;;;;;7.30;3.85;;;18.10;54.00;;;;;;4932398;29;20035;-67
2022/04/30 09:44:07;;;;;;;7.00;3.90;;;18.10;54.20;;;;;;4932914;29;20444;-68
2022/04/30 09:46:37;;;;;;;11.68;3.95;;;18.10;54.60;;;;;;4917831;29;20044;-69
2022/04/30 09:54:37;;;;;;;;;;;18.00;54.50;;;;;;4930017;29;20035;-67
2022/04/30 09:57:07;;;;;;;7.05;3.75;;;18.10;54.50;;;;;;4934345;29;20006;-68
2022/04/30 09:59:38;;;;;;;6.53;3.92;;;18.10;54.40;;;;;;4929537;29;20063;-67
2022/04/30 10:02:06;;;;;;;9.18;4.15;;;18.20;54.10;;;;;;4933110;29;20039;-67
2022/04/30 10:04:33;;;;;;;12.27;4.00;;;18.20;53.90;;;;;;4922236;29;20526;-67
2022/04/30 10:07:00;;;;;;;6.70;4.38;;;18.20;54.00;;;;;;4933074;29;20048;-68
2022/04/30 10:09:37;;;;;;;5.57;3.63;;;18.30;53.90;;;;;;4911655;29;20064;-68
2022/04/30 10:12:21;;;;;;;7.35;3.58;;;18.40;54.40;;;;;;4932661;29;20038;-67
2022/04/30 10:14:53;;;;;;;5.47;3.50;;;18.50;54.00;;;;;;4929115;29;20023;-66
2022/04/30 10:17:23;;;;;;;5.28;3.58;;;18.60;53.50;;;;;;4919184;29;20123;-67
2022/04/30 10:20:12;;;;;;;7.80;3.85;;;18.60;53.40;;;;;;4927787;29;20107;-67
2022/04/30 10:22:51;;;;;;;8.07;3.55;;;18.60;53.60;;;;;;4932506;29;20067;-66
2022/04/30 10:25:17;;;;;;;7.95;3.33;;;18.70;53.60;;;;;;4922483;29;20102;-66
2022/04/30 10:27:47;;;;;;;9.85;3.70;;;18.70;53.80;;;;;;4931644;29;20435;-66
2022/04/30 10:30:24;;;;;;;7.15;3.75;;;18.70;53.20;;;;;;4908746;29;20522;-67
2022/04/30 10:33:02;;;;;;;7.25;3.35;;;18.80;53.10;;;;;;4916191;29;20467;-66
2022/04/30 10:35:38;;;;;;;4.90;3.28;;;18.70;53.10;;;;;;4926853;29;20059;-66
2022/04/30 10:38:11;;;;;;;5.70;3.60;;;18.70;53.10;;;;;;4937709;29;20353;-66
2022/04/30 10:40:46;;;;;;;8.95;4.13;;;18.60;52.00;;;;;;4935523;29;20035;-66
2022/04/30 10:43:26;;;;;;;6.03;3.70;;;18.60;52.30;;;;;;4929853;29;20407;-66
2022/04/30 10:45:53;;;;;;;8.23;3.75;;;18.70;52.40;;;;;;4929092;29;20090;-67
2022/04/30 10:48:20;;;;;;;5.80;3.42;;;18.70;52.20;;;;;;4932641;29;20429;-66
2022/04/30 10:50:56;;;;;;;5.68;3.60;;;18.80;52.50;;;;;;4935699;29;20519;-66
2022/04/30 10:53:27;;;;;;;8.93;4.43;;;18.90;52.60;;;;;;4937229;29;20391;-66
2022/04/30 10:55:54;;;;;;;5.63;3.58;;;18.90;52.80;;;;;;4938513;29;20040;-67
2022/04/30 10:58:24;;;;;;;6.70;3.70;;;19.00;52.50;;;;;;4937109;29;20090;-67
2022/04/30 11:00:51;;;;;;;9.88;3.97;;;19.00;52.80;;;;;;4931730;29;20052;-67
2022/04/30 11:03:17;;;;;;;5.13;3.60;;;19.00;52.20;;;;;;4936055;29;20028;-67
2022/04/30 11:05:47;;;;;;;5.03;3.17;;;19.00;52.10;;;;;;4927841;29;20024;-66
2022/04/30 11:08:13;;;;;;;10.50;3.50;;;19.10;53.00;;;;;;4921152;29;20031;-67
2022/04/30 11:10:49;;;;;;;5.40;3.47;;;19.10;52.30;;;;;;4934634;29;20028;-66
2022/04/30 11:13:15;;;;;;;9.18;3.65;;;19.20;51.50;;;;;;4920601;29;20562;-67
2022/04/30 11:15:40;;;;;;;6.05;3.75;;;19.20;51.70;;;;;;4934616;29;20118;-66
2022/04/30 11:18:06;;;;;;;7.10;3.97;;;19.30;51.90;;;;;;4935930;29;20070;-66
2022/04/30 11:20:32;;;;;;;6.05;3.28;;;19.40;51.40;;;;;;4933649;29;20035;-66
2022/04/30 11:23:00;;;;;;;5.03;3.30;;;19.50;50.90;;;;;;4933953;29;20075;-67
2022/04/30 11:25:37;;;;;;;8.35;3.75;;;19.60;50.70;;;;;;4936526;29;20151;-67
2022/04/30 11:28:07;;;;;;;7.50;3.70;;;19.60;50.30;;;;;;4935592;29;20567;-67
2022/04/30 11:30:40;;;;;;;4.55;3.17;;;19.60;50.70;;;;;;4936513;29;20042;-68
2022/04/30 11:33:07;;;;;;;6.67;3.30;;;19.70;50.80;;;;;;4935556;29;20036;-68
2022/04/30 11:35:33;;;;;;;6.28;3.60;;;19.70;50.20;;;;;;4935018;29;20104;-68
2022/04/30 11:37:59;;;;;;;7.75;4.57;;;19.80;50.30;;;;;;4933630;29;20130;-67
2022/04/30 11:40:27;;;;;;;6.97;4.32;;;19.70;50.10;;;;;;4935311;29;20098;-67
2022/04/30 11:42:57;;;;;;;6.88;3.45;;;19.70;49.70;;;;;;4936077;29;20379;-68
2022/04/30 11:45:30;;;;;;;7.53;4.10;;;19.70;49.70;;;;;;4933812;29;20118;-66
2022/04/30 11:47:56;;;;;;;7.75;3.70;;;19.80;49.20;;;;;;4935211;29;20114;-67
2022/04/30 11:50:22;;;;;;;6.35;3.42;;;19.80;49.30;;;;;;4935788;29;20040;-67
2022/04/30 11:52:48;;;;;;;8.02;3.63;;;19.90;49.30;;;;;;4932401;29;20042;-67
2022/04/30 11:55:15;;;;;;;7.88;3.80;;;19.90;49.40;;;;;;4929458;29;20031;-67
2022/04/30 11:57:42;;;;;;;7.30;3.63;;;20.00;49.60;;;;;;4933902;29;20034;-67
2022/04/30 12:00:09;;;;;;;7.60;4.43;;;20.10;49.80;;;;;;4941178;29;20382;-67
2022/04/30 12:02:37;;;;;;;8.13;4.15;;;20.20;49.30;;;;;;4935077;29;20047;-65
2022/04/30 12:05:04;;;;;;;8.48;3.90;;;20.10;49.50;;;;;;4918049;29;20126;-67
2022/04/30 12:07:41;;;;;;;9.32;4.38;;;20.20;49.20;;;;;;4935965;29;20036;-66
2022/04/30 12:10:24;;;;;;;7.60;3.70;;;20.20;48.60;;;;;;4934255;29;20083;-66
2022/04/30 12:12:53;;;;;;;6.00;3.58;;;20.20;48.20;;;;;;4934537;29;20031;-66
2022/04/30 12:15:21;;;;;;;8.40;3.75;;;20.20;48.90;;;;;;4916755;29;20043;-66
2022/04/30 12:26:09;;;;;;;8.40;4.55;;;20.60;48.80;;;;;;4933503;29;20186;-66
2022/04/30 12:28:45;;;;;;;10.60;5.03;;;20.70;48.00;;;;;;4935118;29;20032;-66
2022/04/30 12:31:10;;;;;;;6.45;4.30;;;20.70;47.50;;;;;;4933012;29;20043;-67
2022/04/30 12:33:45;;;;;;;7.65;4.60;;;20.80;47.50;;;;;;4913393;29;20040;-67
2022/04/30 12:36:12;;;;;;;6.30;3.83;;;20.90;46.90;;;;;;4921885;29;20039;-68
2022/04/30 12:38:38;;;;;;;5.95;4.40;;;20.80;47.10;;;;;;4934422;29;20028;-67
2022/04/30 12:41:06;;;;;;;8.73;4.13;;;20.80;46.80;;;;;;4931494;29;20078;-67
2022/04/30 12:43:36;;;;;;;6.20;3.67;;;20.90;46.70;;;;;;4934683;29;20027;-67
2022/04/30 12:46:02;;;;;;;7.38;4.25;;;20.90;46.50;;;;;;4931867;29;20090;-67
2022/04/30 12:48:28;;;;;;;5.32;3.47;;;20.90;46.50;;;;;;4930312;29;20043;-67
2022/04/30 12:50:55;;;;;;;6.82;3.50;;;20.80;46.30;;;;;;4924762;29;20054;-68
2022/04/30 12:53:20;;;;;;;5.43;3.08;;;20.80;46.50;;;;;;4932643;29;20379;-68
2022/04/30 12:55:47;;;;;;;5.85;3.60;;;20.90;46.60;;;;;;4937246;29;20123;-68
2022/04/30 12:58:12;;;;;;;5.10;3.53;;;21.00;46.40;;;;;;4925548;29;20110;-68
2022/04/30 13:00:38;;;;;;;7.40;3.67;;;21.00;46.30;;;;;;4933875;29;20049;-68
2022/04/30 13:03:05;;;;;;;8.13;3.88;;;21.00;45.80;;;;;;4933438;29;20467;-68
2022/04/30 13:05:31;;;;;;;6.40;3.40;;;21.20;45.60;;;;;;4933423;29;20043;-66
2022/04/30 13:07:56;;;;;;;7.10;4.05;;;21.20;45.40;;;;;;4932790;29;20054;-67
2022/04/30 13:15:50;;;;;;;5.13;3.33;;;21.40;45.10;;;;;;4932834;29;20046;-67
2022/04/30 13:18:16;;;;;;;6.03;3.70;;;21.50;45.00;;;;;;4932223;29;20032;-66
2022/04/30 13:20:42;;;;;;;5.90;3.63;;;21.60;45.00;;;;;;4932192;29;20030;-67
2022/04/30 13:23:07;;;;;;;8.65;4.32;;;21.70;44.80;;;;;;4935372;29;20514;-67
2022/04/30 13:25:33;;;;;;;6.55;3.67;;;21.70;44.00;;;;;;4933361;29;20047;-67
2022/04/30 13:27:59;;;;;;;6.20;3.92;;;21.70;44.50;;;;;;4934085;29;20042;-68
2022/04/30 13:30:26;;;;;;;6.57;4.28;;;21.80;43.90;;;;;;4928377;29;20030;-68
2022/04/30 13:32:53;;;;;;;6.00;3.47;;;21.80;43.10;;;;;;4915240;29;20032;-67
2022/04/30 13:35:19;;;;;;;10.25;3.95;;;21.90;42.90;;;;;;4915632;29;20063;-68
2022/04/30 13:37:45;;;;;;;4.65;3.22;;;21.90;43.30;;;;;;4915216;29;20060;-68
2022/04/30 13:40:15;;;;;;;10.48;4.65;;;22.00;43.30;;;;;;4921005;29;20031;-68